Time;durP1;ratioP1;P1;durP2;ratioP2;P2;SDS_P1;SDS_P2;PMS_P1;PMS_P2;Temp;Humidity;BMP_temperature;BMP_pressure;BME280_temperature;BME280_humidity;BME280_pressure;Samples;Min_cycle;Max_cycle;Signal;HPM_P1;HPM_P2
2023/08/15 00:02:07;;;;;;;1.50;1.00;;;22.70;98.20;;;;;;5013497;28;20493;-83
2023/08/15 00:04:35;;;;;;;1.47;0.90;;;22.70;98.20;;;;;;5011040;28;20464;-83
2023/08/15 00:07:03;;;;;;;1.47;0.90;;;22.70;98.20;;;;;;5010683;28;21016;-83
2023/08/15 00:09:29;;;;;;;1.50;0.90;;;22.70;98.20;;;;;;5016953;28;20515;-83
2023/08/15 00:11:56;;;;;;;1.47;0.90;;;22.70;98.20;;;;;;5016665;28;20501;-83
2023/08/15 00:14:23;;;;;;;1.50;0.90;;;22.70;98.20;;;;;;5017255;28;20962;-83
2023/08/15 00:16:50;;;;;;;1.50;0.90;;;22.70;98.20;;;;;;5015796;28;20483;-83
2023/08/15 00:19:18;;;;;;;1.50;0.90;;;22.70;98.20;;;;;;5018667;28;20487;-83
2023/08/15 00:21:45;;;;;;;1.50;0.90;;;22.70;98.20;;;;;;5015888;28;20486;-83
2023/08/15 00:24:12;;;;;;;1.50;0.90;;;22.70;98.20;;;;;;5021176;28;20468;-83
2023/08/15 00:26:39;;;;;;;1.50;0.90;;;22.70;98.20;;;;;;5013620;28;20493;-84
2023/08/15 00:29:06;;;;;;;1.50;0.90;;;22.70;98.20;;;;;;5022423;28;20464;-83
2023/08/15 00:31:32;;;;;;;1.50;0.90;;;22.70;98.20;;;;;;5012934;28;20485;-82
2023/08/15 00:33:59;;;;;;;1.50;0.90;;;22.70;98.20;;;;;;5027426;28;20463;-83
2023/08/15 00:36:27;;;;;;;1.50;0.90;;;22.70;98.20;;;;;;5019673;28;20858;-83
2023/08/15 00:38:54;;;;;;;1.47;0.90;;;22.80;98.20;;;;;;5022900;28;20464;-83
2023/08/15 00:41:21;;;;;;;1.47;0.90;;;22.80;98.20;;;;;;5006763;28;20762;-83
2023/08/15 00:43:47;;;;;;;1.50;0.90;;;22.80;98.20;;;;;;5023195;28;20468;-83
2023/08/15 00:46:15;;;;;;;1.50;0.90;;;22.80;98.20;;;;;;5002029;28;21019;-83
2023/08/15 00:48:42;;;;;;;1.50;0.90;;;22.80;98.20;;;;;;5017075;28;21032;-83
2023/08/15 00:51:09;;;;;;;1.47;0.90;;;22.80;98.20;;;;;;5004240;28;21021;-83
2023/08/15 00:53:38;;;;;;;1.50;0.90;;;22.80;98.20;;;;;;5018161;28;20457;-83
2023/08/15 00:56:05;;;;;;;1.50;0.90;;;22.80;98.20;;;;;;5006965;28;20456;-83
2023/08/15 00:58:32;;;;;;;1.50;0.90;;;22.80;98.20;;;;;;5022393;28;20997;-83
2023/08/15 01:01:00;;;;;;;1.47;0.90;;;22.80;98.20;;;;;;5006644;28;20481;-83
2023/08/15 01:03:27;;;;;;;1.40;0.90;;;22.80;98.20;;;;;;5023984;28;20460;-83
2023/08/15 01:05:54;;;;;;;1.50;0.80;;;22.80;98.20;;;;;;5003515;28;20586;-85
2023/08/15 01:08:20;;;;;;;1.50;0.90;;;22.80;98.20;;;;;;5019530;28;20461;-84
2023/08/15 01:10:49;;;;;;;1.50;1.00;;;22.80;98.20;;;;;;5007097;28;20492;-84
2023/08/15 01:13:23;;;;;;;1.50;0.90;;;22.80;98.20;;;;;;5006714;28;20499;-84
2023/08/15 01:15:52;;;;;;;1.50;0.90;;;22.80;98.20;;;;;;4998051;28;20471;-84
2023/08/15 01:18:25;;;;;;;1.50;0.90;;;22.80;98.20;;;;;;5025191;28;20463;-84
2023/08/15 01:20:53;;;;;;;1.50;0.90;;;22.70;98.20;;;;;;4999813;28;20488;-84
2023/08/15 01:23:25;;;;;;;1.50;0.90;;;22.70;98.20;;;;;;5026881;28;20986;-84
2023/08/15 01:25:54;;;;;;;1.50;1.10;;;22.60;98.20;;;;;;4999789;28;20484;-83
2023/08/15 01:28:22;;;;;;;1.47;0.90;;;22.60;98.20;;;;;;5023203;28;20465;-84
2023/08/15 01:30:55;;;;;;;1.47;0.90;;;22.50;98.20;;;;;;4993852;28;20599;-84
2023/08/15 01:33:30;;;;;;;1.50;0.90;;;22.50;98.20;;;;;;5007962;28;20480;-84
2023/08/15 01:36:03;;;;;;;1.50;0.90;;;22.50;98.20;;;;;;5006809;28;20539;-84
2023/08/15 01:38:37;;;;;;;1.50;0.90;;;22.50;98.20;;;;;;5024307;28;20496;-84
2023/08/15 01:41:08;;;;;;;1.47;0.90;;;22.40;98.20;;;;;;5009045;28;20480;-84
2023/08/15 01:43:37;;;;;;;1.50;0.90;;;22.40;98.20;;;;;;5015714;28;20548;-83
2023/08/15 01:46:05;;;;;;;1.50;1.00;;;22.40;98.20;;;;;;5007722;28;20583;-84
2023/08/15 01:48:32;;;;;;;1.50;0.90;;;22.40;98.20;;;;;;5018222;28;20469;-83
2023/08/15 01:50:58;;;;;;;1.50;0.90;;;22.40;98.20;;;;;;5005179;28;20486;-83
2023/08/15 01:53:25;;;;;;;1.50;0.90;;;22.40;98.20;;;;;;5027270;28;20543;-83
2023/08/15 01:55:53;;;;;;;1.50;0.90;;;22.30;98.20;;;;;;5018465;23;21102;-80
2023/08/15 01:58:21;;;;;;;1.50;0.90;;;22.40;98.20;;;;;;5042351;28;20463;-81
2023/08/15 02:00:48;;;;;;;1.50;0.90;;;22.40;98.20;;;;;;5048548;28;20475;-81
2023/08/15 02:03:15;;;;;;;1.50;0.90;;;22.40;98.20;;;;;;5054650;28;20466;-81
2023/08/15 02:05:42;;;;;;;1.50;0.90;;;22.40;98.20;;;;;;5051273;28;20482;-81
2023/08/15 02:08:09;;;;;;;1.50;0.90;;;22.40;98.20;;;;;;5039140;28;20483;-81
2023/08/15 02:10:35;;;;;;;1.50;0.90;;;22.50;98.20;;;;;;5041115;28;20466;-81
2023/08/15 02:13:02;;;;;;;1.50;0.90;;;22.50;98.20;;;;;;5029959;28;20486;-81
2023/08/15 02:15:30;;;;;;;1.50;0.90;;;22.50;98.20;;;;;;5041442;28;20977;-82
2023/08/15 02:17:57;;;;;;;1.50;1.00;;;22.50;98.20;;;;;;5037896;28;20497;-80
2023/08/15 02:20:24;;;;;;;1.50;0.90;;;22.50;98.20;;;;;;5041413;28;20467;-81
2023/08/15 02:22:50;;;;;;;1.50;0.90;;;22.50;98.20;;;;;;5040694;28;20581;-82
2023/08/15 02:25:18;;;;;;;1.50;0.90;;;22.50;98.20;;;;;;5039942;28;20471;-80
2023/08/15 02:27:44;;;;;;;1.50;0.93;;;22.50;98.20;;;;;;5033675;28;20556;-81
2023/08/15 02:30:13;;;;;;;1.50;0.90;;;22.60;98.20;;;;;;5040774;28;20470;-80
2023/08/15 02:32:41;;;;;;;1.47;0.90;;;22.60;98.20;;;;;;5034411;28;20514;-82
2023/08/15 02:35:09;;;;;;;1.50;0.90;;;22.60;98.20;;;;;;5042518;28;20486;-81
2023/08/15 02:37:35;;;;;;;1.50;0.97;;;22.60;98.20;;;;;;5044544;28;20483;-80
2023/08/15 02:40:06;;;;;;;1.50;0.90;;;22.60;98.20;;;;;;5041393;28;20462;-81
2023/08/15 02:42:32;;;;;;;1.50;0.90;;;22.60;98.20;;;;;;5034180;28;20485;-81
2023/08/15 02:45:01;;;;;;;1.47;0.90;;;22.60;98.20;;;;;;5042593;28;20458;-79
2023/08/15 02:47:28;;;;;;;1.50;0.90;;;22.60;98.20;;;;;;5041686;28;20482;-83
2023/08/15 02:49:56;;;;;;;1.50;0.90;;;22.60;98.20;;;;;;5048757;28;20466;-83
2023/08/15 02:52:23;;;;;;;1.50;0.90;;;22.60;98.20;;;;;;5041177;28;20471;-78
2023/08/15 02:54:50;;;;;;;1.50;0.90;;;22.60;98.20;;;;;;5040224;28;20470;-80
2023/08/15 02:57:17;;;;;;;1.50;1.00;;;22.60;98.20;;;;;;5035836;28;20474;-79
2023/08/15 02:59:44;;;;;;;1.47;0.90;;;22.60;98.20;;;;;;5039989;28;20559;-79
2023/08/15 03:02:11;;;;;;;1.50;0.90;;;22.50;98.20;;;;;;5025770;28;20932;-79
2023/08/15 03:04:37;;;;;;;1.43;0.90;;;22.50;98.20;;;;;;5040752;28;20832;-79
2023/08/15 03:07:06;;;;;;;1.50;0.90;;;22.50;98.20;;;;;;5031177;28;20482;-79
2023/08/15 03:09:33;;;;;;;1.47;0.90;;;22.40;98.20;;;;;;5042976;28;20518;-80
2023/08/15 03:12:00;;;;;;;1.47;0.90;;;22.40;98.20;;;;;;5035751;28;20486;-79
2023/08/15 03:14:29;;;;;;;1.50;0.90;;;22.30;98.20;;;;;;5040316;28;20463;-79
2023/08/15 03:16:56;;;;;;;1.47;0.90;;;22.30;98.20;;;;;;5033612;28;20506;-80
2023/08/15 03:19:23;;;;;;;1.50;1.07;;;22.30;98.20;;;;;;5040392;28;20554;-79
2023/08/15 03:21:51;;;;;;;1.47;0.90;;;22.20;98.20;;;;;;5035662;28;20478;-79
2023/08/15 03:24:20;;;;;;;1.50;0.90;;;22.20;98.20;;;;;;5042868;28;20467;-79
2023/08/15 03:26:47;;;;;;;1.50;0.90;;;22.20;98.20;;;;;;5031075;28;20895;-79
2023/08/15 03:29:14;;;;;;;1.50;0.90;;;22.20;98.20;;;;;;5038048;28;20812;-78
2023/08/15 03:31:42;;;;;;;2.13;1.93;;;22.10;98.20;;;;;;5029868;28;22904;-79
2023/08/15 03:34:09;;;;;;;1.50;0.90;;;22.10;98.20;;;;;;5040077;28;20486;-79
2023/08/15 03:36:36;;;;;;;1.50;0.90;;;22.10;98.20;;;;;;5026641;28;20965;-80
2023/08/15 03:39:03;;;;;;;1.50;0.90;;;22.10;98.20;;;;;;5044134;28;20458;-79
2023/08/15 03:41:31;;;;;;;1.50;0.90;;;22.10;98.20;;;;;;5025370;28;20474;-80
2023/08/15 03:43:58;;;;;;;1.47;0.90;;;22.10;98.20;;;;;;5039332;28;20470;-79
2023/08/15 03:46:25;;;;;;;1.50;0.90;;;22.10;98.20;;;;;;5029241;28;20923;-79
2023/08/15 03:48:51;;;;;;;1.50;0.90;;;22.10;98.20;;;;;;5043875;28;20841;-79
2023/08/15 03:51:19;;;;;;;1.43;0.90;;;22.10;98.20;;;;;;5036934;28;20478;-79
2023/08/15 03:53:48;;;;;;;1.50;0.90;;;22.10;98.20;;;;;;5043188;28;20470;-80
2023/08/15 03:56:14;;;;;;;1.43;0.90;;;22.10;98.20;;;;;;5034868;28;20482;-82
2023/08/15 03:58:42;;;;;;;1.50;0.90;;;22.10;98.20;;;;;;5045002;28;20462;-81
2023/08/15 04:01:09;;;;;;;1.50;0.90;;;22.10;98.20;;;;;;5035329;28;20535;-78
2023/08/15 04:03:39;;;;;;;1.50;0.90;;;22.10;98.20;;;;;;5044735;28;20486;-82
2023/08/15 04:06:06;;;;;;;1.50;0.90;;;22.10;98.20;;;;;;5034109;28;20493;-81
2023/08/15 04:08:36;;;;;;;1.47;0.83;;;22.00;98.20;;;;;;5045855;28;20505;-82
2023/08/15 04:11:04;;;;;;;1.50;1.00;;;21.90;98.20;;;;;;5033454;28;20545;-83
2023/08/15 04:13:31;;;;;;;1.50;0.90;;;21.90;98.20;;;;;;5044289;28;20474;-82
2023/08/15 04:15:59;;;;;;;1.50;0.90;;;21.90;98.20;;;;;;5030038;28;20486;-82
2023/08/15 04:18:26;;;;;;;1.50;1.00;;;21.80;98.20;;;;;;5043102;28;20462;-82
2023/08/15 04:20:53;;;;;;;1.50;0.90;;;21.80;98.20;;;;;;5026353;28;20460;-82
2023/08/15 04:23:20;;;;;;;1.50;0.90;;;21.80;98.20;;;;;;5038700;28;20459;-82
2023/08/15 04:25:47;;;;;;;1.50;0.90;;;21.80;98.20;;;;;;5048334;28;20486;-84
2023/08/15 04:28:14;;;;;;;1.50;0.90;;;21.80;98.20;;;;;;5034293;28;20502;-86
2023/08/15 04:30:41;;;;;;;1.50;0.90;;;21.80;98.20;;;;;;5042999;28;20472;-87
2023/08/15 04:33:09;;;;;;;1.50;0.90;;;21.80;98.20;;;;;;5037258;28;20508;-85
2023/08/15 04:35:36;;;;;;;1.50;0.90;;;21.90;98.20;;;;;;5035779;28;20463;-86
2023/08/15 04:38:04;;;;;;;1.50;0.90;;;21.90;98.20;;;;;;5036964;28;20597;-85
2023/08/15 04:40:34;;;;;;;1.50;0.97;;;21.90;98.20;;;;;;5038160;28;20463;-86
2023/08/15 04:43:04;;;;;;;1.50;0.90;;;21.90;98.20;;;;;;5025709;28;20482;-86
2023/08/15 04:45:40;;;;;;;1.50;0.90;;;21.90;98.20;;;;;;5049627;23;20505;-85
2023/08/15 04:48:09;;;;;;;1.50;0.90;;;21.90;98.20;;;;;;4986913;28;21016;-86
2023/08/15 04:50:35;;;;;;;1.50;0.90;;;21.90;98.20;;;;;;4997093;28;20475;-85
2023/08/15 04:53:02;;;;;;;1.50;0.90;;;21.90;98.20;;;;;;5009055;28;20483;-86
2023/08/15 04:55:29;;;;;;;1.50;0.90;;;21.80;98.20;;;;;;5003649;28;20514;-84
2023/08/15 04:57:56;;;;;;;1.50;0.90;;;21.80;98.20;;;;;;4997050;28;20471;-81
2023/08/15 05:00:23;;;;;;;1.50;0.90;;;21.80;98.20;;;;;;4994844;28;21039;-84
2023/08/15 05:02:50;;;;;;;1.50;0.90;;;21.80;98.20;;;;;;5000711;28;21030;-83
2023/08/15 05:05:18;;;;;;;1.50;0.90;;;21.80;98.20;;;;;;4991990;28;20543;-82
2023/08/15 05:07:45;;;;;;;1.50;0.90;;;21.80;98.20;;;;;;4995296;28;20485;-82
2023/08/15 05:10:12;;;;;;;1.50;0.90;;;21.80;98.20;;;;;;4994869;28;20476;-83
2023/08/15 05:12:39;;;;;;;1.50;0.90;;;21.80;98.20;;;;;;4999376;28;20518;-82
2023/08/15 05:15:07;;;;;;;1.50;0.90;;;21.80;98.20;;;;;;4992126;28;20935;-83
2023/08/15 05:17:34;;;;;;;1.50;0.90;;;21.80;98.20;;;;;;4998180;28;20607;-83
2023/08/15 05:20:03;;;;;;;1.50;0.90;;;21.80;98.20;;;;;;4995862;28;20471;-82
2023/08/15 05:22:31;;;;;;;1.50;0.90;;;21.90;98.20;;;;;;4996427;28;20484;-82
2023/08/15 05:24:58;;;;;;;1.50;0.90;;;21.80;98.20;;;;;;4993517;28;20476;-84
2023/08/15 05:27:25;;;;;;;1.50;0.83;;;21.90;98.20;;;;;;5000425;28;20479;-84
2023/08/15 05:29:52;;;;;;;1.50;0.90;;;21.90;98.20;;;;;;4989712;28;20811;-85
2023/08/15 05:32:20;;;;;;;1.50;0.90;;;21.90;98.20;;;;;;4991021;28;20583;-85
2023/08/15 05:34:47;;;;;;;1.47;0.90;;;22.00;98.20;;;;;;4990912;28;20841;-84
2023/08/15 05:37:16;;;;;;;1.50;0.90;;;22.00;98.20;;;;;;4989643;28;20479;-84
2023/08/15 05:39:44;;;;;;;1.50;0.90;;;22.00;98.20;;;;;;4991354;28;20841;-84
2023/08/15 05:42:17;;;;;;;1.50;0.90;;;22.00;98.20;;;;;;4993451;28;20483;-84
2023/08/15 05:44:44;;;;;;;1.50;0.87;;;22.00;98.20;;;;;;4989255;28;20469;-84
2023/08/15 05:47:11;;;;;;;1.50;0.90;;;22.00;98.20;;;;;;4990047;28;20514;-84
2023/08/15 05:49:40;;;;;;;1.50;0.90;;;22.00;98.20;;;;;;4987662;28;20521;-85
2023/08/15 05:52:07;;;;;;;1.50;0.90;;;22.00;98.20;;;;;;4994206;28;20482;-84
2023/08/15 05:54:33;;;;;;;1.50;0.90;;;22.00;98.20;;;;;;4991789;28;20536;-84
2023/08/15 05:57:02;;;;;;;1.50;0.90;;;22.10;98.20;;;;;;4990431;28;20546;-85
2023/08/15 05:59:43;;;;;;;1.50;0.90;;;22.10;98.20;;;;;;4990801;28;20564;-84
2023/08/15 06:02:19;;;;;;;1.50;0.90;;;22.20;98.20;;;;;;4987567;28;20511;-84
2023/08/15 06:04:46;;;;;;;1.50;0.90;;;22.20;98.20;;;;;;4989863;28;20468;-85
2023/08/15 06:07:26;;;;;;;1.50;0.90;;;22.10;98.20;;;;;;4991524;28;21080;-85
2023/08/15 06:09:58;;;;;;;1.50;0.90;;;22.10;98.20;;;;;;4988368;28;20470;-84
2023/08/15 06:12:47;;;;;;;1.50;0.90;;;22.10;98.20;;;;;;4995033;28;20476;-85
2023/08/15 06:17:57;;;;;;;1.47;0.90;;;22.10;98.20;;;;;;4996899;28;20555;-86
2023/08/15 06:20:24;;;;;;;1.70;1.20;;;22.10;98.20;;;;;;4990206;28;20547;-85
2023/08/15 06:22:59;;;;;;;1.50;0.90;;;22.20;98.20;;;;;;5003477;28;20690;-85
2023/08/15 06:25:27;;;;;;;1.50;0.90;;;22.20;98.20;;;;;;4990410;28;20460;-85
2023/08/15 06:27:55;;;;;;;2.37;0.97;;;22.20;98.20;;;;;;4994691;28;20867;-85
2023/08/15 06:30:22;;;;;;;1.50;0.80;;;22.30;98.20;;;;;;4987748;28;20999;-85
2023/08/15 06:32:48;;;;;;;1.50;0.90;;;22.30;98.20;;;;;;4995745;28;20507;-87
2023/08/15 06:35:15;;;;;;;1.50;0.83;;;22.40;98.20;;;;;;4987167;28;20497;-85
2023/08/15 06:37:42;;;;;;;1.50;0.90;;;22.40;98.20;;;;;;4995450;28;20494;-86
2023/08/15 06:40:15;;;;;;;1.50;0.90;;;22.40;98.20;;;;;;4991774;28;20479;-84
2023/08/15 06:42:42;;;;;;;1.50;0.90;;;22.40;98.20;;;;;;4997602;28;20545;-86
2023/08/15 06:45:12;;;;;;;3.37;3.10;;;22.40;98.20;;;;;;4987509;28;20461;-86
2023/08/15 06:47:39;;;;;;;1.50;0.90;;;22.40;98.20;;;;;;4992986;28;20477;-84
2023/08/15 06:50:08;;;;;;;1.50;0.87;;;22.30;98.20;;;;;;4988041;28;20469;-85
2023/08/15 06:52:35;;;;;;;1.50;0.90;;;22.30;98.20;;;;;;4994794;28;20546;-86
2023/08/15 06:55:11;;;;;;;1.47;0.87;;;22.20;98.20;;;;;;4992385;28;20469;-84
2023/08/15 07:11:25;;;;;;;1.50;0.90;;;22.20;98.20;;;;;;4858999;29;20479;-85
2023/08/15 07:13:52;;;;;;;1.50;0.90;;;22.30;98.20;;;;;;4978335;28;20550;-85
2023/08/15 07:16:21;;;;;;;1.50;0.90;;;22.30;98.20;;;;;;4983046;28;20491;-84
2023/08/15 07:18:49;;;;;;;1.50;0.90;;;22.20;98.20;;;;;;4997513;28;20529;-85
2023/08/15 07:21:18;;;;;;;1.50;0.90;;;22.20;98.20;;;;;;4982071;28;20479;-84
2023/08/15 07:24:00;;;;;;;1.50;0.90;;;22.20;98.20;;;;;;4995584;28;20569;-84
2023/08/15 07:26:27;;;;;;;1.50;0.90;;;22.30;98.20;;;;;;4983835;28;20471;-84
2023/08/15 07:28:54;;;;;;;1.50;0.90;;;22.30;98.20;;;;;;4994341;28;20981;-85
2023/08/15 07:31:46;;;;;;;1.50;0.90;;;22.40;98.20;;;;;;4987920;28;20479;-84
2023/08/15 07:34:16;;;;;;;1.50;0.90;;;22.40;98.20;;;;;;4989582;28;20457;-84
2023/08/15 07:36:53;;;;;;;1.50;0.90;;;22.50;98.20;;;;;;4985057;28;20566;-85
2023/08/15 07:39:19;;;;;;;1.50;0.90;;;22.50;98.20;;;;;;4992250;28;20819;-85
2023/08/15 07:41:46;;;;;;;1.50;0.90;;;22.60;98.20;;;;;;4985522;28;20476;-85
2023/08/15 07:44:14;;;;;;;1.50;0.90;;;22.60;98.20;;;;;;4992723;28;20536;-85
2023/08/15 07:46:58;;;;;;;1.50;0.83;;;22.70;98.20;;;;;;4988546;28;20486;-85
2023/08/15 07:49:34;;;;;;;1.50;0.90;;;22.80;98.20;;;;;;4991198;28;20484;-85
2023/08/15 07:52:00;;;;;;;1.50;0.90;;;22.80;98.20;;;;;;4986245;28;20551;-85
2023/08/15 07:54:27;;;;;;;1.50;0.87;;;22.80;98.20;;;;;;4990851;28;20461;-85
2023/08/15 07:56:54;;;;;;;1.50;0.87;;;22.80;98.20;;;;;;4988331;28;20490;-86
2023/08/15 07:59:21;;;;;;;1.50;0.90;;;22.90;98.20;;;;;;4993199;28;20461;-85
2023/08/15 08:01:48;;;;;;;1.50;0.90;;;22.90;98.20;;;;;;4988286;28;20484;-85
2023/08/15 08:04:15;;;;;;;1.50;0.90;;;22.90;98.20;;;;;;4995018;28;20461;-85
2023/08/15 08:06:43;;;;;;;1.50;0.90;;;22.90;98.20;;;;;;4988566;28;20475;-85
2023/08/15 08:09:10;;;;;;;1.47;0.80;;;22.90;98.20;;;;;;4994205;28;20522;-85
2023/08/15 08:11:37;;;;;;;1.50;0.90;;;23.00;98.20;;;;;;4988454;28;20566;-85
2023/08/15 08:14:04;;;;;;;1.50;0.90;;;23.10;98.20;;;;;;4993750;28;20461;-85
2023/08/15 08:16:31;;;;;;;1.50;0.90;;;23.10;98.20;;;;;;4986061;28;20480;-85
2023/08/15 08:18:58;;;;;;;1.50;0.90;;;23.20;98.20;;;;;;4995386;28;20460;-85
2023/08/15 08:21:24;;;;;;;1.50;0.90;;;23.20;98.20;;;;;;4986062;28;20470;-84
2023/08/15 08:23:53;;;;;;;1.50;0.80;;;23.20;98.20;;;;;;4999615;28;20474;-85
2023/08/15 08:26:19;;;;;;;1.50;0.87;;;23.20;98.20;;;;;;4987998;28;20479;-85
2023/08/15 08:28:46;;;;;;;1.50;0.90;;;23.20;98.20;;;;;;4998380;28;20562;-85
2023/08/15 08:31:13;;;;;;;1.50;0.80;;;23.20;98.20;;;;;;4989996;28;20563;-85
2023/08/15 08:33:40;;;;;;;1.50;0.90;;;23.20;98.20;;;;;;5009931;28;20558;-85
2023/08/15 08:36:08;;;;;;;1.50;0.90;;;23.20;98.20;;;;;;4987239;28;20496;-84
2023/08/15 08:38:36;;;;;;;1.47;0.90;;;23.30;98.20;;;;;;5003764;28;20961;-84
2023/08/15 08:41:04;;;;;;;1.50;0.87;;;23.30;98.20;;;;;;4979530;28;20986;-85
2023/08/15 08:43:32;;;;;;;1.50;0.90;;;23.40;98.20;;;;;;5006739;28;20514;-84
2023/08/15 08:46:01;;;;;;;1.50;0.90;;;23.40;98.20;;;;;;4987201;28;20488;-84
2023/08/15 08:48:28;;;;;;;1.50;0.83;;;23.40;98.20;;;;;;5007054;28;20575;-84
2023/08/15 08:50:56;;;;;;;1.50;0.90;;;23.50;98.20;;;;;;4983242;28;20497;-84
2023/08/15 08:53:24;;;;;;;1.50;0.90;;;23.50;98.20;;;;;;5009206;28;20525;-84
2023/08/15 08:55:51;;;;;;;1.50;0.90;;;23.50;98.20;;;;;;4983097;28;20509;-84
2023/08/15 08:58:22;;;;;;;1.40;0.90;;;23.50;98.20;;;;;;5006006;28;20458;-84
2023/08/15 09:00:49;;;;;;;1.50;0.90;;;23.60;98.20;;;;;;4983806;28;21011;-84
2023/08/15 09:03:16;;;;;;;1.50;0.83;;;23.70;98.20;;;;;;5012106;28;20457;-84
2023/08/15 09:05:43;;;;;;;1.50;0.87;;;23.70;98.20;;;;;;4992795;28;20484;-83
2023/08/15 09:08:10;;;;;;;1.50;0.90;;;23.80;98.20;;;;;;5001663;28;20492;-82
2023/08/15 09:10:37;;;;;;;1.50;0.90;;;23.80;98.20;;;;;;4992398;28;20463;-84
2023/08/15 09:13:04;;;;;;;1.50;0.90;;;23.90;98.20;;;;;;5003604;28;21054;-84
2023/08/15 09:15:33;;;;;;;1.50;0.90;;;23.90;98.20;;;;;;4991033;28;20465;-83
2023/08/15 09:18:01;;;;;;;1.50;0.90;;;24.00;98.20;;;;;;5002800;28;21061;-84
2023/08/15 09:20:28;;;;;;;1.50;0.90;;;24.10;98.20;;;;;;4991556;28;20453;-84
2023/08/15 09:22:58;;;;;;;1.50;0.90;;;24.10;98.20;;;;;;5005840;28;20472;-84
2023/08/15 09:25:29;;;;;;;1.50;0.90;;;24.20;98.20;;;;;;4991747;28;20461;-85
2023/08/15 09:27:56;;;;;;;1.50;0.90;;;24.30;98.20;;;;;;5003760;28;20562;-82
2023/08/15 09:30:27;;;;;;;1.50;0.90;;;24.40;98.20;;;;;;4993010;28;21098;-84
2023/08/15 09:32:55;;;;;;;1.50;0.80;;;24.50;98.20;;;;;;5006184;28;20538;-84
2023/08/15 09:35:22;;;;;;;1.50;0.80;;;24.50;98.20;;;;;;4992799;28;20496;-84
2023/08/15 09:37:50;;;;;;;1.50;0.90;;;24.60;98.20;;;;;;5002701;28;20476;-84
2023/08/15 09:40:19;;;;;;;1.50;0.90;;;24.70;98.20;;;;;;4989040;28;20460;-84
2023/08/15 09:42:46;;;;;;;1.50;0.90;;;24.80;98.20;;;;;;5005034;28;20855;-83
2023/08/15 09:45:14;;;;;;;1.50;0.90;;;24.80;98.20;;;;;;4993692;28;20468;-84
2023/08/15 09:47:41;;;;;;;1.53;0.90;;;24.90;98.20;;;;;;5001630;28;20620;-83
2023/08/15 09:50:12;;;;;;;1.50;0.80;;;25.10;98.20;;;;;;4989849;28;20489;-84
2023/08/15 09:52:41;;;;;;;1.50;0.90;;;25.10;98.20;;;;;;5005621;28;20857;-85
2023/08/15 09:55:09;;;;;;;1.50;0.90;;;25.20;98.20;;;;;;4991462;28;20863;-83
2023/08/15 09:57:37;;;;;;;1.50;0.90;;;25.20;98.20;;;;;;5002022;28;20480;-84
2023/08/15 10:00:05;;;;;;;1.50;0.80;;;25.40;98.20;;;;;;4990327;28;20680;-83
2023/08/15 10:02:33;;;;;;;1.50;0.87;;;25.50;98.20;;;;;;5005212;28;20475;-83
2023/08/15 10:05:03;;;;;;;1.50;0.80;;;25.70;98.20;;;;;;4992316;28;20468;-83
2023/08/15 10:07:33;;;;;;;1.50;0.80;;;25.80;98.20;;;;;;5005110;28;21016;-84
2023/08/15 10:10:03;;;;;;;1.50;0.90;;;26.00;98.20;;;;;;4992159;28;20495;-84
2023/08/15 10:12:31;;;;;;;1.50;0.80;;;26.10;98.20;;;;;;5004873;28;20483;-84
2023/08/15 10:14:58;;;;;;;1.50;0.90;;;26.30;98.20;;;;;;4992008;28;21029;-80
2023/08/15 10:17:26;;;;;;;1.50;0.83;;;26.30;98.20;;;;;;4997494;28;20578;-81
2023/08/15 10:19:53;;;;;;;1.50;0.80;;;26.40;98.20;;;;;;4991001;28;20456;-84
2023/08/15 10:22:20;;;;;;;1.50;0.80;;;26.30;98.20;;;;;;5002569;28;20486;-85
2023/08/15 10:24:49;;;;;;;1.50;0.90;;;26.30;98.20;;;;;;4994313;28;20460;-84
2023/08/15 10:27:16;;;;;;;1.50;0.80;;;26.30;98.20;;;;;;5001214;28;20562;-80
2023/08/15 10:29:54;;;;;;;1.50;0.80;;;26.30;98.20;;;;;;4996143;28;20560;-84
2023/08/15 10:32:24;;;;;;;1.47;0.80;;;26.30;98.20;;;;;;5001971;28;20490;-82
2023/08/15 10:34:53;;;;;;;1.50;0.80;;;26.40;98.20;;;;;;4993964;28;20555;-82
2023/08/15 10:37:28;;;;;;;1.50;0.90;;;26.40;98.20;;;;;;4997464;28;20575;-84
2023/08/15 10:40:13;;;;;;;1.50;0.90;;;26.50;98.20;;;;;;4990836;28;20460;-82
2023/08/15 10:43:10;;;;;;;1.43;0.90;;;26.50;98.20;;;;;;4999462;28;20490;-84
2023/08/15 10:45:37;;;;;;;1.50;0.90;;;26.50;98.20;;;;;;4988983;28;20488;-82
2023/08/15 10:48:05;;;;;;;1.47;0.83;;;26.60;98.20;;;;;;5001110;28;20502;-84
2023/08/15 10:50:32;;;;;;;1.50;0.80;;;26.60;98.20;;;;;;4997762;28;20919;-84
2023/08/15 10:52:59;;;;;;;1.50;0.90;;;26.60;98.20;;;;;;5011410;28;20799;-83
2023/08/15 10:55:30;;;;;;;1.47;0.80;;;26.70;98.20;;;;;;4986654;28;20465;-84
2023/08/15 10:57:57;;;;;;;1.50;0.87;;;26.60;98.20;;;;;;5006602;28;20988;-82
2023/08/15 11:00:26;;;;;;;1.50;0.90;;;26.70;98.20;;;;;;4992134;28;20537;-84
2023/08/15 11:02:54;;;;;;;1.50;0.90;;;26.70;98.20;;;;;;5006501;28;20547;-82
2023/08/15 11:05:21;;;;;;;1.50;0.80;;;26.90;98.20;;;;;;4989464;28;20531;-83
2023/08/15 11:07:48;;;;;;;1.50;0.80;;;27.00;98.20;;;;;;4991846;28;20571;-83
2023/08/15 11:10:15;;;;;;;1.50;0.80;;;27.10;98.20;;;;;;4984697;28;20587;-82
2023/08/15 11:12:48;;;;;;;1.50;0.80;;;27.20;98.20;;;;;;5002569;28;20892;-82
2023/08/15 11:15:15;;;;;;;1.50;0.80;;;27.30;97.90;;;;;;4986960;28;20464;-83
2023/08/15 11:17:46;;;;;;;1.50;0.80;;;27.40;98.20;;;;;;5000071;28;20487;-83
2023/08/15 11:20:13;;;;;;;1.50;0.87;;;27.50;98.20;;;;;;4984058;28;20503;-82
2023/08/15 11:22:40;;;;;;;1.50;0.80;;;27.70;97.10;;;;;;4999136;28;20484;-83
2023/08/15 11:25:08;;;;;;;1.50;0.80;;;27.90;95.60;;;;;;4995292;28;20983;-85
2023/08/15 11:27:40;;;;;;;1.50;0.80;;;28.00;95.90;;;;;;4996600;28;20479;-84
2023/08/15 11:30:10;;;;;;;1.50;0.80;;;28.10;95.10;;;;;;4981632;28;20492;-85
2023/08/15 11:32:39;;;;;;;1.50;0.80;;;28.20;95.60;;;;;;4996110;28;20483;-83
2023/08/15 11:35:07;;;;;;;1.50;0.90;;;28.30;94.30;;;;;;4979897;28;20540;-83
2023/08/15 11:37:35;;;;;;;1.50;0.80;;;28.40;95.20;;;;;;5000648;28;20578;-83
2023/08/15 11:40:02;;;;;;;1.50;0.80;;;28.60;94.30;;;;;;4988502;28;20465;-84
2023/08/15 11:42:29;;;;;;;1.50;0.87;;;28.80;90.90;;;;;;4997085;28;20527;-82
2023/08/15 11:45:17;;;;;;;1.50;0.90;;;28.90;91.60;;;;;;4981692;28;20464;-82
2023/08/15 11:47:56;;;;;;;1.50;0.80;;;29.00;89.50;;;;;;4986853;28;20488;-85
2023/08/15 11:50:26;;;;;;;1.47;0.80;;;29.00;89.80;;;;;;4984200;28;20543;-84
2023/08/15 11:52:53;;;;;;;1.47;0.80;;;29.00;90.60;;;;;;4996453;28;20523;-83
2023/08/15 11:55:20;;;;;;;1.47;0.80;;;28.90;90.00;;;;;;4989361;28;20469;-84
2023/08/15 11:57:47;;;;;;;1.60;1.20;;;28.80;91.00;;;;;;4992049;28;20508;-84
2023/08/15 12:00:19;;;;;;;1.47;0.80;;;28.80;92.00;;;;;;4979187;28;20457;-83
2023/08/15 12:02:50;;;;;;;1.50;0.90;;;28.90;92.80;;;;;;5001757;28;20505;-83
2023/08/15 12:05:19;;;;;;;1.50;0.80;;;29.10;91.50;;;;;;4995910;28;20461;-82
2023/08/15 12:07:47;;;;;;;1.47;0.80;;;29.20;90.10;;;;;;5004005;28;20494;-84
2023/08/15 12:10:15;;;;;;;1.50;0.90;;;29.20;88.60;;;;;;5001429;28;20587;-84
2023/08/15 12:12:44;;;;;;;1.50;0.87;;;29.30;88.50;;;;;;5001987;28;20496;-83
2023/08/15 12:15:12;;;;;;;1.40;0.80;;;29.40;88.70;;;;;;4989423;28;20524;-83
2023/08/15 12:17:41;;;;;;;1.50;0.83;;;29.50;87.80;;;;;;5010036;28;20471;-84
2023/08/15 12:20:11;;;;;;;1.40;0.80;;;29.50;88.30;;;;;;5003746;28;20461;-84
2023/08/15 12:22:39;;;;;;;1.50;0.90;;;29.50;90.10;;;;;;5001053;28;20480;-83
2023/08/15 12:25:08;;;;;;;1.47;0.80;;;29.60;88.70;;;;;;4991877;28;20483;-84
2023/08/15 12:27:35;;;;;;;1.50;0.90;;;29.50;88.00;;;;;;5004973;28;20487;-82
2023/08/15 12:30:02;;;;;;;1.43;0.80;;;29.60;88.50;;;;;;4989103;28;20501;-82
2023/08/15 12:32:29;;;;;;;1.47;0.80;;;29.60;87.20;;;;;;5003804;28;20499;-83
2023/08/15 12:34:58;;;;;;;1.60;1.20;;;29.70;87.40;;;;;;4991030;28;20488;-83
2023/08/15 12:37:25;;;;;;;1.50;0.90;;;29.80;85.30;;;;;;5001704;28;20547;-84
2023/08/15 12:39:52;;;;;;;1.43;0.80;;;29.80;87.50;;;;;;4994230;28;20573;-83
2023/08/15 12:42:19;;;;;;;1.47;0.80;;;29.80;84.90;;;;;;5000665;28;20471;-83
2023/08/15 12:44:46;;;;;;;1.40;0.90;;;29.90;87.40;;;;;;5007891;28;20491;-84
2023/08/15 12:47:13;;;;;;;1.50;0.80;;;29.80;87.00;;;;;;4982158;28;20519;-82
2023/08/15 12:49:40;;;;;;;1.43;0.80;;;29.70;87.00;;;;;;4999105;28;20492;-84
2023/08/15 12:52:08;;;;;;;1.50;0.80;;;29.60;85.20;;;;;;5004541;28;20553;-84
2023/08/15 12:54:35;;;;;;;1.50;0.80;;;29.50;87.70;;;;;;5006598;28;20520;-83
2023/08/15 12:57:02;;;;;;;1.50;0.80;;;29.50;86.10;;;;;;4997192;28;21006;-84
2023/08/15 12:59:29;;;;;;;1.47;0.80;;;29.40;89.80;;;;;;5005532;28;20546;-82
2023/08/15 13:01:56;;;;;;;1.50;0.80;;;29.40;89.30;;;;;;4994474;28;20491;-82
2023/08/15 13:04:23;;;;;;;1.47;0.80;;;29.30;88.90;;;;;;4996605;28;20885;-84
2023/08/15 13:06:50;;;;;;;1.50;0.90;;;29.30;90.10;;;;;;4993080;28;20553;-83
2023/08/15 13:09:18;;;;;;;1.43;0.90;;;29.30;90.60;;;;;;5003481;28;20523;-83
2023/08/15 13:11:45;;;;;;;1.80;1.43;;;29.30;89.10;;;;;;4998886;28;20546;-83